createdAt,value
2018-10-17T00:02:56.723Z,14.80
2018-10-17T00:09:00.477Z,14.80
2018-10-17T00:15:04.849Z,14.80
2018-10-17T00:21:08.681Z,14.70
2018-10-17T00:27:12.043Z,14.70
2018-10-17T00:33:16.492Z,14.70
2018-10-17T00:39:19.893Z,14.70
2018-10-17T00:45:23.535Z,14.70
2018-10-17T00:51:27.636Z,14.70
2018-10-17T00:57:31.232Z,14.70
2018-10-17T01:03:35.006Z,14.70
2018-10-17T01:09:38.702Z,14.70
2018-10-17T01:15:42.542Z,14.70
2018-10-17T01:21:46.434Z,14.60
2018-10-17T01:27:49.954Z,14.60
2018-10-17T01:33:53.882Z,14.60
2018-10-17T01:39:57.607Z,14.60
2018-10-17T01:46:01.068Z,14.60
2018-10-17T01:52:04.852Z,14.60
2018-10-17T01:58:08.161Z,14.50
2018-10-17T02:04:11.726Z,14.50
2018-10-17T02:10:15.107Z,14.60
2018-10-17T02:16:18.690Z,14.60
2018-10-17T02:22:22.873Z,14.60
2018-10-17T02:28:26.863Z,14.60
2018-10-17T02:34:30.507Z,14.50
2018-10-17T02:40:34.455Z,14.50
2018-10-17T02:46:38.003Z,14.50
2018-10-17T02:52:42.239Z,14.40
2018-10-17T02:58:45.992Z,14.40
2018-10-17T03:04:49.519Z,14.40
2018-10-17T03:10:54.447Z,14.40
2018-10-17T03:16:58.189Z,14.40
2018-10-17T03:23:01.944Z,14.30
2018-10-17T03:29:05.735Z,14.30
2018-10-17T03:35:09.313Z,14.30
2018-10-17T03:41:13.745Z,14.20
2018-10-17T03:47:17.396Z,14.20
2018-10-17T03:53:21.029Z,14.20
2018-10-17T03:59:24.864Z,14.20
2018-10-17T04:05:28.213Z,14.20
2018-10-17T04:11:32.744Z,14.20
2018-10-17T04:17:37.318Z,14.20
2018-10-17T04:23:41.057Z,14.20
2018-10-17T04:29:44.629Z,14.20
2018-10-17T04:35:49.043Z,14.20
2018-10-17T04:41:53.170Z,14.20
2018-10-17T04:47:57.081Z,14.30
2018-10-17T04:54:00.782Z,14.30
2018-10-17T05:00:07.219Z,14.20
2018-10-17T05:06:10.986Z,14.20
2018-10-17T05:12:15.379Z,14.20
2018-10-17T05:18:19.051Z,14.20
2018-10-17T05:24:22.688Z,14.20
2018-10-17T05:30:26.318Z,14.10
2018-10-17T05:36:31.031Z,13.90
2018-10-17T05:42:34.596Z,13.90
2018-10-17T05:51:14.018Z,13.90
2018-10-17T05:57:17.449Z,13.90
2018-10-17T06:03:20.953Z,13.90
2018-10-17T06:09:24.319Z,13.90
2018-10-17T06:15:28.474Z,13.90
2018-10-17T06:21:31.972Z,13.90
2018-10-17T06:27:35.799Z,13.90
2018-10-17T06:33:39.377Z,13.90
2018-10-17T06:39:42.965Z,13.90
2018-10-17T06:45:46.549Z,13.90
2018-10-17T06:51:50.229Z,14.10
2018-10-17T06:57:53.815Z,14.20
2018-10-17T07:03:57.581Z,14.40
2018-10-17T07:12:30.470Z,14.50
2018-10-17T07:18:34.150Z,14.60
2018-10-17T07:24:37.915Z,14.70
2018-10-17T07:33:14.145Z,14.70
2018-10-17T07:39:17.640Z,14.80
2018-10-17T07:45:21.706Z,14.90
2018-10-17T07:51:25.787Z,15.00
2018-10-17T07:57:29.974Z,15.00
2018-10-17T08:03:33.552Z,15.10
2018-10-17T08:09:37.275Z,15.30
2018-10-17T08:15:40.845Z,15.40
2018-10-17T08:21:44.261Z,15.60
2018-10-17T08:27:48.066Z,15.80
2018-10-17T08:33:51.754Z,16.00
2018-10-17T08:39:55.995Z,16.10
2018-10-17T08:45:59.428Z,16.20
2018-10-17T08:52:03.093Z,16.50
2018-10-17T08:58:06.667Z,16.80
2018-10-17T09:04:10.180Z,17.10
2018-10-17T09:10:14.320Z,17.30
2018-10-17T09:16:18.625Z,17.50
2018-10-17T09:22:24.468Z,17.60
2018-10-17T09:28:27.695Z,17.80
2018-10-17T09:34:32.578Z,17.90
2018-10-17T09:40:36.902Z,18.00
2018-10-17T09:46:40.786Z,18.10
2018-10-17T09:52:44.300Z,18.20
2018-10-17T09:58:48.229Z,18.30
2018-10-17T10:04:51.976Z,18.40
2018-10-17T10:10:56.031Z,18.60
2018-10-17T10:16:59.495Z,18.70
2018-10-17T10:23:03.004Z,18.90
2018-10-17T10:29:07.413Z,19.00
2018-10-17T10:35:11.204Z,19.10
2018-10-17T10:43:47.029Z,19.20
2018-10-17T10:49:50.798Z,19.40
2018-10-17T10:55:54.370Z,19.50
2018-10-17T11:02:05.515Z,19.70
2018-10-17T11:08:09.925Z,20.00
2018-10-17T11:14:13.507Z,20.30
2018-10-17T11:20:16.984Z,20.40
2018-10-17T11:26:20.793Z,20.50
2018-10-17T11:32:24.643Z,20.60
2018-10-17T11:38:28.282Z,20.70
2018-10-17T11:44:31.929Z,20.80
2018-10-17T11:50:35.654Z,20.90
2018-10-17T11:56:39.477Z,21.00
2018-10-17T12:02:43.207Z,21.10
2018-10-17T12:08:47.229Z,21.00
2018-10-17T12:14:51.039Z,21.00
2018-10-17T12:20:55.464Z,21.00
2018-10-17T12:27:00.348Z,21.00
2018-10-17T12:33:04.255Z,21.20
2018-10-17T12:39:11.072Z,21.20
2018-10-17T12:45:14.675Z,21.20
2018-10-17T12:51:18.566Z,21.30
2018-10-17T12:57:22.192Z,21.30
2018-10-17T13:03:26.026Z,21.50
2018-10-17T13:09:29.986Z,21.70
2018-10-17T13:15:33.677Z,21.90
2018-10-17T13:21:37.192Z,22.00
2018-10-17T13:27:41.836Z,22.20
2018-10-17T13:33:45.562Z,22.30
2018-10-17T13:39:49.305Z,22.40
2018-10-17T13:45:54.813Z,22.50
2018-10-17T13:51:58.268Z,22.50
2018-10-17T13:58:01.729Z,22.60
2018-10-17T14:04:07.316Z,22.60
2018-10-17T14:10:11.390Z,22.50
2018-10-17T14:16:14.915Z,22.40
2018-10-17T14:22:18.270Z,22.30
2018-10-17T14:28:21.640Z,22.20
2018-10-17T14:34:25.152Z,22.10
2018-10-17T14:40:28.535Z,22.00
2018-10-17T14:46:31.972Z,22.00
2018-10-17T14:52:36.690Z,22.00
2018-10-17T14:58:40.100Z,22.00
2018-10-17T15:04:43.684Z,22.00
2018-10-17T15:10:47.332Z,22.20
2018-10-17T15:16:50.948Z,22.30
2018-10-17T15:22:54.391Z,22.20
2018-10-17T15:28:57.837Z,22.30
2018-10-17T15:35:01.232Z,22.10
2018-10-17T15:41:04.729Z,21.80
2018-10-17T15:47:08.334Z,21.50
2018-10-17T15:53:12.161Z,21.30
2018-10-17T15:59:15.409Z,21.10
2018-10-17T16:05:18.812Z,20.90
2018-10-17T16:11:22.512Z,20.70
2018-10-17T16:17:26.574Z,20.50
2018-10-17T16:23:30.117Z,20.30
2018-10-17T16:29:33.577Z,20.20
2018-10-17T16:35:37.009Z,20.00
2018-10-17T16:41:40.451Z,19.90
2018-10-17T16:47:43.935Z,19.80
2018-10-17T16:53:47.954Z,19.70
2018-10-17T16:59:51.266Z,19.60
2018-10-17T17:05:54.724Z,19.40
2018-10-17T17:11:58.452Z,19.20
2018-10-17T17:18:01.739Z,19.10
2018-10-17T17:24:05.294Z,19.00
2018-10-17T17:30:15.715Z,18.90
2018-10-17T17:36:19.970Z,18.80
2018-10-17T17:42:23.330Z,18.70
2018-10-17T17:48:26.754Z,18.50
2018-10-17T17:54:30.047Z,18.40
2018-10-17T18:00:33.850Z,18.30
2018-10-17T18:06:38.794Z,18.30
2018-10-17T18:12:42.660Z,18.20
2018-10-17T18:18:46.123Z,18.10
2018-10-17T18:24:49.514Z,18.00
2018-10-17T18:30:53.050Z,17.90
2018-10-17T18:36:59.221Z,17.90
2018-10-17T18:43:02.754Z,17.80
2018-10-17T18:49:07.026Z,17.70
2018-10-17T18:55:10.506Z,17.60
2018-10-17T19:01:14.478Z,17.60
2018-10-17T19:07:18.253Z,17.50
2018-10-17T19:13:21.791Z,17.50
2018-10-17T19:19:25.302Z,17.40
2018-10-17T19:25:29.037Z,17.30
2018-10-17T19:31:32.505Z,17.10
2018-10-17T19:37:36.078Z,17.20
2018-10-17T19:43:39.744Z,17.20
2018-10-17T19:49:43.429Z,17.20
2018-10-17T19:55:47.321Z,17.10
2018-10-17T20:01:51.004Z,17.10
2018-10-17T20:07:54.644Z,17.00
2018-10-17T20:13:58.215Z,16.90
2018-10-17T20:20:01.698Z,16.80
2018-10-17T20:26:05.807Z,16.70
2018-10-17T20:32:10.595Z,16.70
2018-10-17T20:38:14.099Z,16.50
2018-10-17T20:44:17.547Z,16.40
2018-10-17T20:50:21.234Z,16.30
2018-10-17T20:56:24.798Z,16.20
2018-10-17T21:02:28.401Z,16.10
2018-10-17T21:08:31.954Z,16.10
2018-10-17T21:14:36.774Z,15.90
2018-10-17T21:20:40.407Z,15.80
2018-10-17T21:26:44.240Z,15.80
2018-10-17T21:32:47.557Z,15.80
2018-10-17T21:38:51.802Z,15.70
2018-10-17T21:44:55.186Z,15.70
2018-10-17T21:50:59.342Z,15.60
2018-10-17T21:57:02.839Z,15.60
2018-10-17T22:03:06.178Z,15.50
2018-10-17T22:09:10.751Z,15.40
2018-10-17T22:15:14.156Z,15.40
2018-10-17T22:21:17.507Z,15.30
2018-10-17T22:27:21.946Z,15.20
2018-10-17T22:33:25.370Z,15.20
2018-10-17T22:39:29.279Z,15.10
2018-10-17T22:45:32.703Z,15.10
2018-10-17T22:51:36.494Z,15.10
2018-10-17T22:57:40.460Z,15.00
2018-10-17T23:03:44.211Z,14.90
2018-10-17T23:09:47.826Z,14.90
2018-10-17T23:15:51.298Z,14.80
2018-10-17T23:21:56.101Z,14.70
2018-10-17T23:27:59.824Z,14.60
2018-10-17T23:34:03.371Z,14.60
2018-10-17T23:40:07.598Z,14.50
2018-10-17T23:46:11.117Z,14.50
2018-10-17T23:52:15.187Z,14.50
2018-10-17T23:58:18.941Z,14.40
